createdAt,value
2023-03-23T00:02:32.467Z,54.81
2023-03-23T00:06:33.282Z,55.14
2023-03-23T00:10:33.035Z,55.80
2023-03-23T00:14:32.596Z,56.05
2023-03-23T00:18:32.768Z,56.61
2023-03-23T00:22:32.839Z,56.34
2023-03-23T00:26:34.177Z,56.44
2023-03-23T00:30:33.766Z,56.42
2023-03-23T00:34:32.943Z,55.65
2023-03-23T00:38:35.811Z,55.60
2023-03-23T00:42:32.710Z,55.71
2023-03-23T00:46:32.612Z,55.54
2023-03-23T00:50:38.679Z,55.91
2023-03-23T00:54:33.547Z,55.55
2023-03-23T00:58:32.596Z,55.69
2023-03-23T01:02:34.093Z,55.01
2023-03-23T01:06:32.981Z,54.98
2023-03-23T01:10:33.326Z,54.58
2023-03-23T01:14:33.097Z,54.34
2023-03-23T01:18:33.964Z,54.38
2023-03-23T01:22:33.448Z,53.98
2023-03-23T01:26:33.880Z,54.03
2023-03-23T01:30:34.137Z,54.09
2023-03-23T01:34:33.928Z,55.33
2023-03-23T01:38:34.058Z,56.20
2023-03-23T01:42:34.894Z,56.27
2023-03-23T01:46:34.451Z,55.56
2023-03-23T01:50:34.590Z,56.79
2023-03-23T01:54:34.739Z,57.50
2023-03-23T01:58:34.981Z,56.22
2023-03-23T02:02:34.954Z,55.61
2023-03-23T02:06:35.170Z,55.25
2023-03-23T02:10:35.714Z,55.65
2023-03-23T02:18:54.457Z,57.01
2023-03-23T02:22:55.143Z,56.45
2023-03-23T02:26:54.335Z,58.12
2023-03-23T02:30:54.597Z,59.25
2023-03-23T02:34:54.367Z,59.40
2023-03-23T02:38:54.337Z,59.74
2023-03-23T02:42:54.295Z,58.73
2023-03-23T02:46:54.579Z,57.75
2023-03-23T02:50:54.260Z,57.29
2023-03-23T02:54:54.105Z,56.56
2023-03-23T02:58:54.073Z,56.82
2023-03-23T03:02:54.174Z,56.37
2023-03-23T03:06:54.354Z,56.03
2023-03-23T03:10:56.073Z,56.80
2023-03-23T03:14:54.705Z,57.91
2023-03-23T03:18:54.780Z,57.34
2023-03-23T03:22:54.766Z,57.13
2023-03-23T03:26:55.224Z,56.82
2023-03-23T03:30:56.135Z,56.75
2023-03-23T03:34:55.476Z,56.81
2023-03-23T03:38:55.543Z,56.65
2023-03-23T03:42:56.247Z,56.15
2023-03-23T03:46:55.810Z,56.60
2023-03-23T03:50:55.845Z,58.00
2023-03-23T03:54:56.131Z,59.16
2023-03-23T03:58:55.927Z,58.04
2023-03-23T04:02:57.136Z,57.24
2023-03-23T04:06:55.949Z,56.89
2023-03-23T04:10:56.124Z,56.26
2023-03-23T04:14:56.152Z,56.37
2023-03-23T04:18:57.238Z,57.62
2023-03-23T04:22:56.142Z,56.34
2023-03-23T04:26:56.165Z,56.11
2023-03-23T04:30:57.144Z,57.77
2023-03-23T04:34:56.626Z,56.24
2023-03-23T04:38:57.185Z,57.61
2023-03-23T04:42:56.347Z,56.87
2023-03-23T04:46:56.442Z,57.55
2023-03-23T04:50:56.516Z,57.22
2023-03-23T04:54:56.650Z,58.05
2023-03-23T04:58:56.854Z,57.14
2023-03-23T05:02:56.840Z,57.90
2023-03-23T05:06:57.062Z,57.98
2023-03-23T05:10:57.589Z,58.61
2023-03-23T05:14:57.638Z,59.09
2023-03-23T05:18:57.452Z,57.88
2023-03-23T05:22:57.621Z,57.09
2023-03-23T05:26:57.599Z,56.89
2023-03-23T05:30:57.631Z,58.03
2023-03-23T05:34:58.710Z,57.37
2023-03-23T05:38:57.764Z,56.51
2023-03-23T05:42:58.664Z,56.97
2023-03-23T05:46:57.929Z,57.49
2023-03-23T05:50:57.906Z,57.35
2023-03-23T05:54:58.014Z,56.94
2023-03-23T05:58:58.126Z,57.40
2023-03-23T06:02:58.314Z,56.18
2023-03-23T06:06:58.397Z,55.97
2023-03-23T06:10:59.178Z,55.53
2023-03-23T06:14:58.755Z,55.31
2023-03-23T06:18:58.955Z,55.94
2023-03-23T06:23:00.628Z,55.30
2023-03-23T06:26:59.225Z,56.98
2023-03-23T06:31:00.222Z,56.42
2023-03-23T06:35:03.477Z,55.82
2023-03-23T06:39:06.063Z,56.19
2023-03-23T06:43:04.998Z,56.61
2023-03-23T06:47:00.024Z,57.04
2023-03-23T06:51:00.350Z,55.78
2023-03-23T06:54:59.275Z,56.58
2023-03-23T06:58:59.198Z,57.65
2023-03-23T07:02:59.982Z,59.02
2023-03-23T07:06:59.724Z,58.27
2023-03-23T07:10:59.118Z,58.55
2023-03-23T07:14:59.242Z,57.97
2023-03-23T07:18:59.540Z,58.44
2023-03-23T07:22:59.582Z,57.93
2023-03-23T07:26:59.688Z,56.50
2023-03-23T07:30:59.843Z,56.21
2023-03-23T07:34:59.927Z,56.20
2023-03-23T07:39:00.243Z,56.39
2023-03-23T07:43:00.325Z,55.98
2023-03-23T07:47:00.195Z,55.16
2023-03-23T07:51:00.517Z,55.18
2023-03-23T07:55:00.393Z,55.36
2023-03-23T07:59:00.688Z,56.70
2023-03-23T08:03:03.798Z,55.58
2023-03-23T08:07:00.678Z,54.58
2023-03-23T08:11:00.842Z,54.20
2023-03-23T08:15:00.580Z,54.68
2023-03-23T08:19:08.548Z,52.96
2023-03-23T08:23:01.538Z,52.49
2023-03-23T08:27:01.614Z,51.76
2023-03-23T08:31:01.053Z,51.53
2023-03-23T08:35:01.993Z,50.23
2023-03-23T08:39:03.298Z,50.19
2023-03-23T08:43:01.197Z,50.12
2023-03-23T08:47:00.648Z,48.74
2023-03-23T08:51:00.874Z,49.37
2023-03-23T08:55:00.534Z,48.54
2023-03-23T08:59:00.517Z,47.42
2023-03-23T09:03:00.678Z,46.82
2023-03-23T09:07:00.673Z,46.66
2023-03-23T09:11:00.729Z,47.04
2023-03-23T09:15:01.122Z,48.87
2023-03-23T09:19:03.558Z,49.06
2023-03-23T09:23:00.253Z,47.78
2023-03-23T09:27:00.374Z,47.71
2023-03-23T09:31:00.290Z,45.19
2023-03-23T09:35:01.502Z,44.60
2023-03-23T09:39:00.392Z,46.37
2023-03-23T09:43:00.816Z,45.72
2023-03-23T09:47:00.662Z,45.27
2023-03-23T09:51:00.773Z,46.88
2023-03-23T09:55:02.865Z,45.33
2023-03-23T09:59:00.925Z,44.16
2023-03-23T10:03:01.256Z,44.50
2023-03-23T10:07:01.161Z,43.55
2023-03-23T10:11:02.003Z,43.31
2023-03-23T10:15:01.626Z,42.09
2023-03-23T10:19:02.313Z,40.58
2023-03-23T10:23:01.745Z,41.53
2023-03-23T10:27:02.021Z,41.13
2023-03-23T10:31:01.911Z,41.08
2023-03-23T10:35:01.968Z,38.74
2023-03-23T10:39:02.049Z,37.82
2023-03-23T10:43:02.738Z,38.90
2023-03-23T10:47:02.604Z,38.67
2023-03-23T10:51:02.581Z,38.92
2023-03-23T10:55:02.766Z,38.53
2023-03-23T10:59:02.835Z,39.00
2023-03-23T11:03:04.593Z,39.69
2023-03-23T11:07:03.290Z,39.90
2023-03-23T11:11:03.884Z,38.66
2023-03-23T11:15:03.018Z,40.50
2023-03-23T11:19:03.113Z,41.34
2023-03-23T11:23:02.858Z,42.15
2023-03-23T11:27:03.199Z,42.12
2023-03-23T11:31:03.208Z,43.86
2023-03-23T11:35:16.348Z,42.54
2023-03-23T11:39:02.656Z,43.08
2023-03-23T11:43:02.860Z,39.36
2023-03-23T11:47:03.242Z,40.25
2023-03-23T11:51:02.891Z,40.06
2023-03-23T11:55:02.990Z,39.98
2023-03-23T11:59:02.920Z,39.63
2023-03-23T12:03:03.134Z,39.97
2023-03-23T12:07:03.180Z,39.18
2023-03-23T12:11:03.972Z,39.48
2023-03-23T12:15:04.673Z,39.07
2023-03-23T12:19:07.414Z,38.28
2023-03-23T12:23:03.482Z,38.98
2023-03-23T12:27:03.342Z,37.15
2023-03-23T12:31:03.316Z,37.08
2023-03-23T12:35:03.186Z,35.90
2023-03-23T12:39:03.212Z,35.57
2023-03-23T12:43:03.325Z,34.46
2023-03-23T12:47:03.188Z,33.08
2023-03-23T12:51:03.280Z,33.77
2023-03-23T12:55:03.349Z,32.19
2023-03-23T12:59:03.832Z,31.07
2023-03-23T13:03:03.596Z,31.80
2023-03-23T13:07:03.769Z,31.00
2023-03-23T13:11:04.272Z,30.80
2023-03-23T13:15:04.028Z,31.13
2023-03-23T13:19:04.308Z,30.84
2023-03-23T13:23:04.492Z,30.39
2023-03-23T13:27:04.610Z,29.89
2023-03-23T13:31:04.887Z,27.71
2023-03-23T13:35:05.060Z,27.59
2023-03-23T13:39:05.412Z,26.71
2023-03-23T13:43:05.794Z,27.20
2023-03-23T13:47:05.847Z,27.31
2023-03-23T13:51:05.420Z,26.48
2023-03-23T13:55:05.496Z,26.05
2023-03-23T13:59:05.687Z,26.33
2023-03-23T14:03:05.745Z,25.39
2023-03-23T14:07:06.018Z,27.06
2023-03-23T14:11:06.097Z,25.76
2023-03-23T14:15:06.158Z,26.65
2023-03-23T14:19:06.276Z,26.73
2023-03-23T14:23:06.347Z,27.40
2023-03-23T14:27:06.509Z,27.24
2023-03-23T14:31:06.697Z,26.98
2023-03-23T14:35:06.712Z,27.85
2023-03-23T14:39:06.754Z,27.94
2023-03-23T14:43:06.899Z,27.91
2023-03-23T14:47:06.968Z,27.45
2023-03-23T14:51:07.769Z,26.13
2023-03-23T14:55:07.209Z,24.97
2023-03-23T14:59:07.656Z,24.62
2023-03-23T15:03:07.774Z,24.49
2023-03-23T15:07:07.747Z,25.37
2023-03-23T15:11:08.063Z,25.68
2023-03-23T15:15:07.933Z,26.21
2023-03-23T15:19:07.925Z,26.17
2023-03-23T15:23:07.950Z,26.23
2023-03-23T15:27:07.821Z,26.22
2023-03-23T15:31:07.906Z,25.80
2023-03-23T15:35:12.636Z,26.05
2023-03-23T15:39:08.872Z,25.56
2023-03-23T15:43:07.740Z,26.13
2023-03-23T15:47:07.795Z,26.79
2023-03-23T15:51:07.772Z,28.31
2023-03-23T15:55:08.359Z,30.39
2023-03-23T15:59:07.975Z,30.76
2023-03-23T16:03:08.385Z,29.89
2023-03-23T16:07:08.277Z,30.60
2023-03-23T16:11:08.445Z,31.99
2023-03-23T16:15:08.515Z,32.25
2023-03-23T16:19:08.550Z,32.22
2023-03-23T16:23:08.698Z,31.67
2023-03-23T16:27:08.843Z,31.54
2023-03-23T16:31:09.006Z,31.81
2023-03-23T16:35:09.209Z,31.64
2023-03-23T16:39:09.191Z,32.38
2023-03-23T16:43:09.815Z,32.54
2023-03-23T16:47:09.427Z,33.06
2023-03-23T16:51:09.563Z,33.17
2023-03-23T16:55:09.673Z,33.00
2023-03-23T16:59:09.765Z,33.49
2023-03-23T17:03:09.905Z,33.63
2023-03-23T17:07:10.056Z,34.24
2023-03-23T17:11:10.169Z,34.29
2023-03-23T17:15:10.298Z,34.49
2023-03-23T17:19:10.485Z,34.94
2023-03-23T17:23:10.562Z,35.03
2023-03-23T17:27:10.793Z,35.29
2023-03-23T17:31:10.828Z,36.81
2023-03-23T17:35:11.329Z,36.60
2023-03-23T17:39:11.163Z,37.53
2023-03-23T17:43:11.291Z,37.67
2023-03-23T17:47:11.406Z,38.55
2023-03-23T17:51:11.550Z,38.14
2023-03-23T17:55:11.863Z,39.22
2023-03-23T17:59:12.769Z,39.92
2023-03-23T18:03:12.006Z,40.94
2023-03-23T18:07:12.152Z,40.20
2023-03-23T18:11:12.222Z,40.52
2023-03-23T18:15:12.460Z,41.17
2023-03-23T18:19:12.575Z,40.42
2023-03-23T18:23:12.648Z,41.03
2023-03-23T18:27:12.726Z,41.31
2023-03-23T18:31:12.997Z,40.64
2023-03-23T18:35:13.060Z,40.24
2023-03-23T18:39:13.311Z,40.43
2023-03-23T18:43:13.474Z,41.75
2023-03-23T18:47:13.465Z,41.57
2023-03-23T18:51:13.574Z,41.67
2023-03-23T18:55:13.648Z,42.00
2023-03-23T18:59:13.778Z,41.21
2023-03-23T19:03:14.025Z,40.99
2023-03-23T19:07:14.141Z,41.25
2023-03-23T19:11:14.314Z,40.69
2023-03-23T19:15:14.343Z,40.76
2023-03-23T19:19:15.329Z,41.73
2023-03-23T19:23:15.360Z,42.42
2023-03-23T19:27:15.500Z,42.29
2023-03-23T19:31:14.947Z,43.03
2023-03-23T19:35:16.649Z,43.91
2023-03-23T19:39:15.364Z,44.23
2023-03-23T19:43:15.265Z,44.41
2023-03-23T19:47:17.434Z,44.35
2023-03-23T19:51:15.694Z,42.85
2023-03-23T19:55:15.794Z,43.39
2023-03-23T19:59:16.316Z,44.63
2023-03-23T20:03:16.231Z,44.39
2023-03-23T20:07:16.224Z,44.97
2023-03-23T20:11:16.326Z,45.82
2023-03-23T20:15:16.544Z,45.86
2023-03-23T20:19:16.581Z,45.29
2023-03-23T20:23:16.655Z,44.73
2023-03-23T20:27:17.308Z,45.40
2023-03-23T20:31:23.430Z,45.23
2023-03-23T20:35:17.911Z,45.73
2023-03-23T20:39:16.783Z,45.62
2023-03-23T20:43:16.825Z,45.91
2023-03-23T20:47:16.781Z,46.15
2023-03-23T20:51:16.834Z,46.12
2023-03-23T20:55:16.973Z,45.43
2023-03-23T20:59:17.178Z,45.76
2023-03-23T21:03:17.139Z,46.51
2023-03-23T21:07:17.352Z,47.35
2023-03-23T21:11:17.561Z,47.07
2023-03-23T21:15:17.740Z,46.81
2023-03-23T21:19:17.910Z,45.59
2023-03-23T21:23:18.079Z,46.25
2023-03-23T21:27:17.949Z,46.46
2023-03-23T21:31:18.438Z,45.40
2023-03-23T21:35:18.301Z,46.14
2023-03-23T21:39:20.024Z,46.91
2023-03-23T21:43:18.447Z,46.77
2023-03-23T21:47:18.498Z,47.98
2023-03-23T21:51:18.696Z,47.83
2023-03-23T21:55:18.874Z,48.78
2023-03-23T21:59:19.484Z,48.07
2023-03-23T22:03:19.146Z,46.46
2023-03-23T22:07:19.322Z,47.47
2023-03-23T22:11:19.395Z,47.49
2023-03-23T22:15:19.954Z,48.42
2023-03-23T22:19:19.838Z,48.30
2023-03-23T22:23:19.877Z,46.32
2023-03-23T22:27:19.982Z,45.96
2023-03-23T22:31:20.145Z,46.04
2023-03-23T22:35:20.261Z,47.26
2023-03-23T22:39:20.417Z,47.69
2023-03-23T22:43:20.495Z,46.83
2023-03-23T22:47:20.675Z,46.89
2023-03-23T22:51:20.671Z,46.89
2023-03-23T22:55:20.636Z,47.58
2023-03-23T22:59:20.604Z,48.15
2023-03-23T23:03:20.576Z,49.84
2023-03-23T23:07:20.546Z,49.64
2023-03-23T23:11:20.513Z,49.54
2023-03-23T23:15:20.466Z,49.30
2023-03-23T23:19:20.348Z,49.88
2023-03-23T23:23:20.436Z,49.44
2023-03-23T23:27:20.497Z,51.85
2023-03-23T23:31:20.397Z,52.96
2023-03-23T23:35:20.343Z,52.49
2023-03-23T23:39:20.209Z,52.29
2023-03-23T23:43:20.175Z,51.69
2023-03-23T23:47:20.079Z,52.53
2023-03-23T23:51:20.141Z,52.31
2023-03-23T23:55:20.043Z,52.60
2023-03-23T23:59:20.120Z,52.56
